sensor_id;sensor_type;location;lat;lon;timestamp;P1;durP1;ratioP1;P2;durP2;ratioP2
9749;SDS011;4914;43.218;27.908;2022-11-13T00:00:35;39.80;;;29.27;;
9749;SDS011;4914;43.218;27.908;2022-11-13T00:03:02;48.53;;;32.50;;
9749;SDS011;4914;43.218;27.908;2022-11-13T00:05:29;43.87;;;30.77;;
9749;SDS011;4914;43.218;27.908;2022-11-13T00:07:57;37.63;;;28.83;;
9749;SDS011;4914;43.218;27.908;2022-11-13T00:10:24;37.83;;;28.63;;
9749;SDS011;4914;43.218;27.908;2022-11-13T00:12:50;38.97;;;28.47;;
9749;SDS011;4914;43.218;27.908;2022-11-13T00:15:18;37.80;;;28.90;;
9749;SDS011;4914;43.218;27.908;2022-11-13T00:17:48;46.20;;;31.07;;
9749;SDS011;4914;43.218;27.908;2022-11-13T00:20:15;44.23;;;31.17;;
9749;SDS011;4914;43.218;27.908;2022-11-13T00:22:42;41.47;;;30.47;;
9749;SDS011;4914;43.218;27.908;2022-11-13T00:25:11;41.80;;;31.27;;
9749;SDS011;4914;43.218;27.908;2022-11-13T00:27:38;39.60;;;29.13;;
9749;SDS011;4914;43.218;27.908;2022-11-13T00:30:05;31.80;;;24.10;;
9749;SDS011;4914;43.218;27.908;2022-11-13T00:32:32;29.43;;;22.80;;
9749;SDS011;4914;43.218;27.908;2022-11-13T00:35:02;25.57;;;21.40;;
9749;SDS011;4914;43.218;27.908;2022-11-13T00:37:29;31.03;;;22.47;;
9749;SDS011;4914;43.218;27.908;2022-11-13T00:39:56;27.47;;;22.13;;
9749;SDS011;4914;43.218;27.908;2022-11-13T00:42:24;25.73;;;21.73;;
9749;SDS011;4914;43.218;27.908;2022-11-13T00:44:51;23.03;;;18.67;;
9749;SDS011;4914;43.218;27.908;2022-11-13T00:47:17;28.00;;;20.20;;
9749;SDS011;4914;43.218;27.908;2022-11-13T00:49:44;25.47;;;18.90;;
9749;SDS011;4914;43.218;27.908;2022-11-13T00:52:11;21.50;;;18.83;;
9749;SDS011;4914;43.218;27.908;2022-11-13T00:54:38;23.97;;;19.87;;
9749;SDS011;4914;43.218;27.908;2022-11-13T00:57:05;27.17;;;21.63;;
9749;SDS011;4914;43.218;27.908;2022-11-13T00:59:33;24.67;;;20.57;;
9749;SDS011;4914;43.218;27.908;2022-11-13T01:02:00;24.23;;;21.27;;
9749;SDS011;4914;43.218;27.908;2022-11-13T01:04:27;23.00;;;18.67;;
9749;SDS011;4914;43.218;27.908;2022-11-13T01:06:54;27.27;;;18.67;;
9749;SDS011;4914;43.218;27.908;2022-11-13T01:09:21;23.30;;;19.40;;
9749;SDS011;4914;43.218;27.908;2022-11-13T01:11:48;30.73;;;19.40;;
9749;SDS011;4914;43.218;27.908;2022-11-13T01:14:15;22.40;;;18.83;;
9749;SDS011;4914;43.218;27.908;2022-11-13T01:16:43;21.67;;;18.43;;
9749;SDS011;4914;43.218;27.908;2022-11-13T01:19:10;25.00;;;15.20;;
9749;SDS011;4914;43.218;27.908;2022-11-13T01:21:36;16.80;;;12.97;;
9749;SDS011;4914;43.218;27.908;2022-11-13T01:24:04;20.00;;;12.97;;
9749;SDS011;4914;43.218;27.908;2022-11-13T01:26:31;15.07;;;12.53;;
9749;SDS011;4914;43.218;27.908;2022-11-13T01:28:58;15.80;;;12.70;;
9749;SDS011;4914;43.218;27.908;2022-11-13T01:31:27;15.77;;;12.87;;
9749;SDS011;4914;43.218;27.908;2022-11-13T01:33:57;16.70;;;13.40;;
9749;SDS011;4914;43.218;27.908;2022-11-13T01:36:24;20.13;;;14.77;;
9749;SDS011;4914;43.218;27.908;2022-11-13T01:38:53;23.33;;;15.33;;
9749;SDS011;4914;43.218;27.908;2022-11-13T01:41:21;23.03;;;15.37;;
9749;SDS011;4914;43.218;27.908;2022-11-13T01:43:50;18.47;;;15.50;;
9749;SDS011;4914;43.218;27.908;2022-11-13T01:46:20;21.80;;;16.20;;
9749;SDS011;4914;43.218;27.908;2022-11-13T01:48:52;21.07;;;15.73;;
9749;SDS011;4914;43.218;27.908;2022-11-13T01:51:25;21.10;;;15.97;;
9749;SDS011;4914;43.218;27.908;2022-11-13T01:53:55;18.73;;;15.60;;
9749;SDS011;4914;43.218;27.908;2022-11-13T01:56:23;26.13;;;16.10;;
9749;SDS011;4914;43.218;27.908;2022-11-13T01:58:53;24.07;;;16.37;;
9749;SDS011;4914;43.218;27.908;2022-11-13T02:01:23;23.13;;;16.73;;
9749;SDS011;4914;43.218;27.908;2022-11-13T02:03:50;19.93;;;16.83;;
9749;SDS011;4914;43.218;27.908;2022-11-13T02:06:17;25.40;;;18.23;;
9749;SDS011;4914;43.218;27.908;2022-11-13T02:08:47;25.73;;;18.33;;
9749;SDS011;4914;43.218;27.908;2022-11-13T02:11:15;28.30;;;19.17;;
9749;SDS011;4914;43.218;27.908;2022-11-13T02:13:43;25.27;;;19.67;;
9749;SDS011;4914;43.218;27.908;2022-11-13T02:16:10;24.30;;;19.33;;
9749;SDS011;4914;43.218;27.908;2022-11-13T02:18:38;28.00;;;19.67;;
9749;SDS011;4914;43.218;27.908;2022-11-13T02:21:09;25.03;;;20.13;;
9749;SDS011;4914;43.218;27.908;2022-11-13T02:23:45;26.17;;;19.83;;
9749;SDS011;4914;43.218;27.908;2022-11-13T02:26:21;24.27;;;19.03;;
9749;SDS011;4914;43.218;27.908;2022-11-13T02:28:50;29.00;;;19.07;;
9749;SDS011;4914;43.218;27.908;2022-11-13T02:31:17;26.23;;;19.67;;
9749;SDS011;4914;43.218;27.908;2022-11-13T02:33:44;26.30;;;19.57;;
9749;SDS011;4914;43.218;27.908;2022-11-13T02:36:11;28.37;;;19.97;;
9749;SDS011;4914;43.218;27.908;2022-11-13T02:38:38;28.93;;;21.00;;
9749;SDS011;4914;43.218;27.908;2022-11-13T02:41:07;27.03;;;20.77;;
9749;SDS011;4914;43.218;27.908;2022-11-13T02:43:35;28.97;;;19.50;;
9749;SDS011;4914;43.218;27.908;2022-11-13T02:46:02;27.23;;;20.83;;
9749;SDS011;4914;43.218;27.908;2022-11-13T02:48:29;27.37;;;20.40;;
9749;SDS011;4914;43.218;27.908;2022-11-13T02:50:56;35.43;;;22.97;;
9749;SDS011;4914;43.218;27.908;2022-11-13T02:53:23;32.77;;;22.37;;
9749;SDS011;4914;43.218;27.908;2022-11-13T02:55:50;36.73;;;24.17;;
9749;SDS011;4914;43.218;27.908;2022-11-13T02:58:16;34.23;;;24.83;;
9749;SDS011;4914;43.218;27.908;2022-11-13T03:00:44;32.13;;;23.87;;
9749;SDS011;4914;43.218;27.908;2022-11-13T03:03:12;34.63;;;24.27;;
9749;SDS011;4914;43.218;27.908;2022-11-13T03:05:38;33.60;;;23.87;;
9749;SDS011;4914;43.218;27.908;2022-11-13T03:08:05;37.70;;;24.43;;
9749;SDS011;4914;43.218;27.908;2022-11-13T03:10:32;34.03;;;24.80;;
9749;SDS011;4914;43.218;27.908;2022-11-13T03:12:59;36.80;;;25.27;;
9749;SDS011;4914;43.218;27.908;2022-11-13T03:15:26;33.17;;;26.73;;
9749;SDS011;4914;43.218;27.908;2022-11-13T03:17:54;38.27;;;26.17;;
9749;SDS011;4914;43.218;27.908;2022-11-13T03:20:21;40.03;;;26.77;;
9749;SDS011;4914;43.218;27.908;2022-11-13T03:22:48;40.23;;;26.53;;
9749;SDS011;4914;43.218;27.908;2022-11-13T03:25:15;37.93;;;26.70;;
9749;SDS011;4914;43.218;27.908;2022-11-13T03:27:42;42.47;;;27.03;;
9749;SDS011;4914;43.218;27.908;2022-11-13T03:30:09;39.77;;;28.17;;
9749;SDS011;4914;43.218;27.908;2022-11-13T03:32:36;37.50;;;28.60;;
9749;SDS011;4914;43.218;27.908;2022-11-13T03:35:05;48.03;;;29.43;;
9749;SDS011;4914;43.218;27.908;2022-11-13T03:37:33;41.27;;;27.87;;
9749;SDS011;4914;43.218;27.908;2022-11-13T03:39:59;36.93;;;27.60;;
9749;SDS011;4914;43.218;27.908;2022-11-13T03:42:26;35.33;;;27.07;;
9749;SDS011;4914;43.218;27.908;2022-11-13T03:44:53;41.43;;;26.83;;
9749;SDS011;4914;43.218;27.908;2022-11-13T03:47:20;42.23;;;28.77;;
9749;SDS011;4914;43.218;27.908;2022-11-13T03:49:47;34.63;;;27.47;;
9749;SDS011;4914;43.218;27.908;2022-11-13T03:52:15;44.47;;;29.40;;
9749;SDS011;4914;43.218;27.908;2022-11-13T03:54:42;42.27;;;29.40;;
9749;SDS011;4914;43.218;27.908;2022-11-13T03:57:09;37.20;;;28.53;;
9749;SDS011;4914;43.218;27.908;2022-11-13T03:59:36;38.67;;;28.17;;
9749;SDS011;4914;43.218;27.908;2022-11-13T04:02:03;39.53;;;28.57;;
9749;SDS011;4914;43.218;27.908;2022-11-13T04:04:29;44.40;;;31.43;;
9749;SDS011;4914;43.218;27.908;2022-11-13T04:06:56;45.67;;;31.53;;
9749;SDS011;4914;43.218;27.908;2022-11-13T04:09:24;51.87;;;34.93;;
9749;SDS011;4914;43.218;27.908;2022-11-13T04:11:51;42.83;;;33.10;;
9749;SDS011;4914;43.218;27.908;2022-11-13T04:14:18;52.00;;;33.47;;
9749;SDS011;4914;43.218;27.908;2022-11-13T04:16:45;45.83;;;33.23;;
9749;SDS011;4914;43.218;27.908;2022-11-13T04:19:12;47.43;;;34.27;;
9749;SDS011;4914;43.218;27.908;2022-11-13T04:21:38;38.00;;;30.73;;
9749;SDS011;4914;43.218;27.908;2022-11-13T04:24:05;42.33;;;30.50;;
9749;SDS011;4914;43.218;27.908;2022-11-13T04:26:34;42.70;;;28.50;;
9749;SDS011;4914;43.218;27.908;2022-11-13T04:29:00;33.30;;;23.77;;
9749;SDS011;4914;43.218;27.908;2022-11-13T04:31:27;35.90;;;25.60;;
9749;SDS011;4914;43.218;27.908;2022-11-13T04:33:54;29.83;;;25.50;;
9749;SDS011;4914;43.218;27.908;2022-11-13T04:36:21;32.87;;;23.93;;
9749;SDS011;4914;43.218;27.908;2022-11-13T04:38:48;33.90;;;23.60;;
9749;SDS011;4914;43.218;27.908;2022-11-13T04:41:15;33.50;;;23.93;;
9749;SDS011;4914;43.218;27.908;2022-11-13T04:44:00;31.57;;;23.30;;
9749;SDS011;4914;43.218;27.908;2022-11-13T04:46:27;29.53;;;22.77;;
9749;SDS011;4914;43.218;27.908;2022-11-13T04:48:54;29.23;;;23.07;;
9749;SDS011;4914;43.218;27.908;2022-11-13T04:51:21;36.13;;;25.07;;
9749;SDS011;4914;43.218;27.908;2022-11-13T04:53:48;38.53;;;24.37;;
9749;SDS011;4914;43.218;27.908;2022-11-13T04:56:15;36.63;;;25.37;;
9749;SDS011;4914;43.218;27.908;2022-11-13T04:58:41;33.73;;;25.70;;
9749;SDS011;4914;43.218;27.908;2022-11-13T05:01:10;34.60;;;25.57;;
9749;SDS011;4914;43.218;27.908;2022-11-13T05:03:36;43.07;;;28.90;;
9749;SDS011;4914;43.218;27.908;2022-11-13T05:06:04;40.10;;;28.27;;
9749;SDS011;4914;43.218;27.908;2022-11-13T05:08:32;40.07;;;28.20;;
9749;SDS011;4914;43.218;27.908;2022-11-13T05:10:59;35.70;;;27.47;;
9749;SDS011;4914;43.218;27.908;2022-11-13T05:13:26;38.30;;;28.23;;
9749;SDS011;4914;43.218;27.908;2022-11-13T05:15:59;34.77;;;26.30;;
9749;SDS011;4914;43.218;27.908;2022-11-13T05:18:28;32.80;;;25.43;;
9749;SDS011;4914;43.218;27.908;2022-11-13T05:20:55;30.17;;;23.37;;
9749;SDS011;4914;43.218;27.908;2022-11-13T05:23:22;27.93;;;24.37;;
9749;SDS011;4914;43.218;27.908;2022-11-13T05:25:48;29.33;;;23.67;;
9749;SDS011;4914;43.218;27.908;2022-11-13T05:28:16;25.37;;;22.10;;
9749;SDS011;4914;43.218;27.908;2022-11-13T05:30:43;27.13;;;22.13;;
9749;SDS011;4914;43.218;27.908;2022-11-13T05:33:10;69.00;;;24.20;;
9749;SDS011;4914;43.218;27.908;2022-11-13T05:35:38;163.67;;;27.33;;
9749;SDS011;4914;43.218;27.908;2022-11-13T05:38:05;125.37;;;27.53;;
9749;SDS011;4914;43.218;27.908;2022-11-13T05:40:31;115.43;;;27.10;;
9749;SDS011;4914;43.218;27.908;2022-11-13T05:42:58;96.57;;;27.73;;
9749;SDS011;4914;43.218;27.908;2022-11-13T05:45:25;209.30;;;28.73;;
9749;SDS011;4914;43.218;27.908;2022-11-13T05:47:52;52.07;;;27.37;;
9749;SDS011;4914;43.218;27.908;2022-11-13T05:50:19;126.40;;;29.70;;
9749;SDS011;4914;43.218;27.908;2022-11-13T05:52:47;113.77;;;30.47;;
9749;SDS011;4914;43.218;27.908;2022-11-13T05:55:14;74.93;;;31.23;;
9749;SDS011;4914;43.218;27.908;2022-11-13T05:57:41;185.00;;;32.17;;
9749;SDS011;4914;43.218;27.908;2022-11-13T06:00:08;79.07;;;32.80;;
9749;SDS011;4914;43.218;27.908;2022-11-13T06:02:36;79.30;;;34.87;;
9749;SDS011;4914;43.218;27.908;2022-11-13T06:05:03;55.47;;;34.97;;
9749;SDS011;4914;43.218;27.908;2022-11-13T06:07:30;187.10;;;33.60;;
9749;SDS011;4914;43.218;27.908;2022-11-13T06:09:59;91.03;;;31.13;;
9749;SDS011;4914;43.218;27.908;2022-11-13T06:12:25;39.90;;;27.80;;
9749;SDS011;4914;43.218;27.908;2022-11-13T06:14:52;34.57;;;27.57;;
9749;SDS011;4914;43.218;27.908;2022-11-13T06:17:19;31.53;;;24.30;;
9749;SDS011;4914;43.218;27.908;2022-11-13T06:19:46;30.13;;;24.63;;
9749;SDS011;4914;43.218;27.908;2022-11-13T06:22:13;30.40;;;24.40;;
9749;SDS011;4914;43.218;27.908;2022-11-13T06:24:40;29.40;;;22.90;;
9749;SDS011;4914;43.218;27.908;2022-11-13T06:27:08;24.63;;;21.63;;
9749;SDS011;4914;43.218;27.908;2022-11-13T06:29:35;24.77;;;19.77;;
9749;SDS011;4914;43.218;27.908;2022-11-13T06:32:02;23.90;;;18.70;;
9749;SDS011;4914;43.218;27.908;2022-11-13T06:34:28;33.53;;;25.93;;
9749;SDS011;4914;43.218;27.908;2022-11-13T06:36:55;35.77;;;26.53;;
9749;SDS011;4914;43.218;27.908;2022-11-13T06:39:22;23.50;;;21.00;;
9749;SDS011;4914;43.218;27.908;2022-11-13T06:41:49;23.23;;;20.33;;
9749;SDS011;4914;43.218;27.908;2022-11-13T06:44:17;22.13;;;18.93;;
9749;SDS011;4914;43.218;27.908;2022-11-13T06:46:44;34.70;;;26.83;;
9749;SDS011;4914;43.218;27.908;2022-11-13T06:49:11;48.50;;;39.13;;
9749;SDS011;4914;43.218;27.908;2022-11-13T06:51:38;36.20;;;30.27;;
9749;SDS011;4914;43.218;27.908;2022-11-13T06:54:05;24.13;;;19.10;;
9749;SDS011;4914;43.218;27.908;2022-11-13T06:56:32;23.67;;;19.57;;
9749;SDS011;4914;43.218;27.908;2022-11-13T06:58:59;23.13;;;20.73;;
9749;SDS011;4914;43.218;27.908;2022-11-13T07:01:27;32.13;;;28.63;;
9749;SDS011;4914;43.218;27.908;2022-11-13T07:03:54;20.03;;;16.70;;
9749;SDS011;4914;43.218;27.908;2022-11-13T07:06:22;15.63;;;12.43;;
9749;SDS011;4914;43.218;27.908;2022-11-13T07:08:49;18.00;;;13.07;;
9749;SDS011;4914;43.218;27.908;2022-11-13T07:11:18;18.60;;;13.67;;
9749;SDS011;4914;43.218;27.908;2022-11-13T07:13:45;20.80;;;17.43;;
9749;SDS011;4914;43.218;27.908;2022-11-13T07:16:13;18.10;;;14.93;;
9749;SDS011;4914;43.218;27.908;2022-11-13T07:18:43;25.63;;;18.87;;
9749;SDS011;4914;43.218;27.908;2022-11-13T07:21:10;17.17;;;15.00;;
9749;SDS011;4914;43.218;27.908;2022-11-13T07:23:38;20.00;;;15.63;;
9749;SDS011;4914;43.218;27.908;2022-11-13T07:26:07;21.08;;;17.08;;
9749;SDS011;4914;43.218;27.908;2022-11-13T07:28:35;19.13;;;16.27;;
9749;SDS011;4914;43.218;27.908;2022-11-13T07:31:02;18.98;;;17.08;;
9749;SDS011;4914;43.218;27.908;2022-11-13T07:33:29;19.75;;;16.27;;
9749;SDS011;4914;43.218;27.908;2022-11-13T07:35:58;20.90;;;15.65;;
9749;SDS011;4914;43.218;27.908;2022-11-13T07:38:25;18.13;;;15.02;;
9749;SDS011;4914;43.218;27.908;2022-11-13T07:40:52;16.50;;;14.10;;
9749;SDS011;4914;43.218;27.908;2022-11-13T07:43:18;16.27;;;14.20;;
9749;SDS011;4914;43.218;27.908;2022-11-13T07:45:45;17.58;;;15.80;;
9749;SDS011;4914;43.218;27.908;2022-11-13T07:48:18;21.08;;;16.40;;
9749;SDS011;4914;43.218;27.908;2022-11-13T07:50:45;18.85;;;16.40;;
9749;SDS011;4914;43.218;27.908;2022-11-13T07:53:14;20.67;;;17.25;;
9749;SDS011;4914;43.218;27.908;2022-11-13T07:55:41;22.95;;;19.10;;
9749;SDS011;4914;43.218;27.908;2022-11-13T07:58:07;17.80;;;15.63;;
9749;SDS011;4914;43.218;27.908;2022-11-13T08:00:35;17.95;;;15.95;;
9749;SDS011;4914;43.218;27.908;2022-11-13T08:03:05;21.10;;;16.10;;
9749;SDS011;4914;43.218;27.908;2022-11-13T08:05:33;16.45;;;14.48;;
9749;SDS011;4914;43.218;27.908;2022-11-13T08:08:00;15.50;;;14.10;;
9749;SDS011;4914;43.218;27.908;2022-11-13T08:10:29;17.33;;;15.73;;
9749;SDS011;4914;43.218;27.908;2022-11-13T08:12:57;18.27;;;16.40;;
9749;SDS011;4914;43.218;27.908;2022-11-13T08:15:25;19.00;;;16.30;;
9749;SDS011;4914;43.218;27.908;2022-11-13T08:17:52;102.53;;;66.50;;
9749;SDS011;4914;43.218;27.908;2022-11-13T08:20:19;123.13;;;92.18;;
9749;SDS011;4914;43.218;27.908;2022-11-13T08:22:46;66.97;;;47.90;;
9749;SDS011;4914;43.218;27.908;2022-11-13T08:25:13;44.50;;;33.63;;
9749;SDS011;4914;43.218;27.908;2022-11-13T08:27:41;25.92;;;18.98;;
9749;SDS011;4914;43.218;27.908;2022-11-13T08:30:09;26.67;;;21.50;;
9749;SDS011;4914;43.218;27.908;2022-11-13T08:32:36;23.23;;;20.77;;
9749;SDS011;4914;43.218;27.908;2022-11-13T08:35:03;23.80;;;21.30;;
9749;SDS011;4914;43.218;27.908;2022-11-13T08:37:31;22.15;;;19.67;;
9749;SDS011;4914;43.218;27.908;2022-11-13T08:39:58;19.58;;;16.33;;
9749;SDS011;4914;43.218;27.908;2022-11-13T08:42:25;25.00;;;19.35;;
9749;SDS011;4914;43.218;27.908;2022-11-13T08:44:53;19.35;;;17.45;;
9749;SDS011;4914;43.218;27.908;2022-11-13T08:47:20;26.40;;;23.70;;
9749;SDS011;4914;43.218;27.908;2022-11-13T08:49:47;22.70;;;20.27;;
9749;SDS011;4914;43.218;27.908;2022-11-13T08:52:14;25.45;;;21.75;;
9749;SDS011;4914;43.218;27.908;2022-11-13T08:54:41;33.80;;;30.35;;
9749;SDS011;4914;43.218;27.908;2022-11-13T08:57:08;26.98;;;21.02;;
9749;SDS011;4914;43.218;27.908;2022-11-13T08:59:34;21.13;;;18.95;;
9749;SDS011;4914;43.218;27.908;2022-11-13T09:02:03;24.23;;;20.80;;
9749;SDS011;4914;43.218;27.908;2022-11-13T09:04:30;26.58;;;22.50;;
9749;SDS011;4914;43.218;27.908;2022-11-13T09:06:57;29.40;;;26.15;;
9749;SDS011;4914;43.218;27.908;2022-11-13T09:09:24;24.27;;;20.23;;
9749;SDS011;4914;43.218;27.908;2022-11-13T09:11:50;24.13;;;21.58;;
9749;SDS011;4914;43.218;27.908;2022-11-13T09:14:17;25.13;;;22.48;;
9749;SDS011;4914;43.218;27.908;2022-11-13T09:16:44;21.48;;;18.98;;
9749;SDS011;4914;43.218;27.908;2022-11-13T09:19:13;29.50;;;25.77;;
9749;SDS011;4914;43.218;27.908;2022-11-13T09:21:40;24.67;;;22.33;;
9749;SDS011;4914;43.218;27.908;2022-11-13T09:24:07;24.05;;;21.70;;
9749;SDS011;4914;43.218;27.908;2022-11-13T09:26:34;28.60;;;25.67;;
9749;SDS011;4914;43.218;27.908;2022-11-13T09:29:01;24.58;;;21.17;;
9749;SDS011;4914;43.218;27.908;2022-11-13T09:31:28;26.65;;;22.83;;
9749;SDS011;4914;43.218;27.908;2022-11-13T09:33:55;27.77;;;24.30;;
9749;SDS011;4914;43.218;27.908;2022-11-13T09:36:23;26.30;;;22.48;;
9749;SDS011;4914;43.218;27.908;2022-11-13T09:38:50;27.08;;;23.33;;
9749;SDS011;4914;43.218;27.908;2022-11-13T09:41:18;21.60;;;19.33;;
9749;SDS011;4914;43.218;27.908;2022-11-13T09:43:49;33.60;;;30.05;;
9749;SDS011;4914;43.218;27.908;2022-11-13T09:46:18;36.15;;;32.30;;
9749;SDS011;4914;43.218;27.908;2022-11-13T09:48:56;45.00;;;40.55;;
9749;SDS011;4914;43.218;27.908;2022-11-13T09:51:29;37.10;;;33.22;;
9749;SDS011;4914;43.218;27.908;2022-11-13T09:53:58;41.10;;;36.95;;
9749;SDS011;4914;43.218;27.908;2022-11-13T09:56:31;30.73;;;27.67;;
9749;SDS011;4914;43.218;27.908;2022-11-13T09:59:03;27.75;;;23.52;;
9749;SDS011;4914;43.218;27.908;2022-11-13T10:01:48;25.40;;;22.65;;
9749;SDS011;4914;43.218;27.908;2022-11-13T10:04:23;23.20;;;20.90;;
9749;SDS011;4914;43.218;27.908;2022-11-13T10:07:02;20.65;;;18.73;;
9749;SDS011;4914;43.218;27.908;2022-11-13T10:09:41;26.63;;;18.80;;
9749;SDS011;4914;43.218;27.908;2022-11-13T10:12:16;17.27;;;15.48;;
9749;SDS011;4914;43.218;27.908;2022-11-13T10:14:44;15.25;;;13.20;;
9749;SDS011;4914;43.218;27.908;2022-11-13T10:17:15;18.05;;;14.77;;
9749;SDS011;4914;43.218;27.908;2022-11-13T10:19:51;18.60;;;16.67;;
9749;SDS011;4914;43.218;27.908;2022-11-13T10:22:25;17.40;;;14.52;;
9749;SDS011;4914;43.218;27.908;2022-11-13T10:24:57;15.90;;;14.27;;
9749;SDS011;4914;43.218;27.908;2022-11-13T10:27:27;17.17;;;15.38;;
9749;SDS011;4914;43.218;27.908;2022-11-13T10:29:54;16.88;;;13.35;;
9749;SDS011;4914;43.218;27.908;2022-11-13T10:32:22;12.88;;;11.68;;
9749;SDS011;4914;43.218;27.908;2022-11-13T10:34:52;17.05;;;15.32;;
9749;SDS011;4914;43.218;27.908;2022-11-13T10:37:32;14.07;;;12.63;;
9749;SDS011;4914;43.218;27.908;2022-11-13T10:40:09;17.95;;;16.25;;
9749;SDS011;4914;43.218;27.908;2022-11-13T10:42:36;13.00;;;11.73;;
9749;SDS011;4914;43.218;27.908;2022-11-13T10:45:11;14.13;;;12.48;;
9749;SDS011;4914;43.218;27.908;2022-11-13T10:47:42;13.43;;;11.88;;
9749;SDS011;4914;43.218;27.908;2022-11-13T10:50:17;12.48;;;10.50;;
9749;SDS011;4914;43.218;27.908;2022-11-13T10:52:48;13.40;;;11.63;;
9749;SDS011;4914;43.218;27.908;2022-11-13T10:55:19;11.90;;;10.80;;
9749;SDS011;4914;43.218;27.908;2022-11-13T10:57:55;10.88;;;9.98;;
9749;SDS011;4914;43.218;27.908;2022-11-13T11:00:24;9.52;;;8.60;;
9749;SDS011;4914;43.218;27.908;2022-11-13T11:02:55;12.65;;;11.45;;
9749;SDS011;4914;43.218;27.908;2022-11-13T11:05:23;11.40;;;10.30;;
9749;SDS011;4914;43.218;27.908;2022-11-13T11:07:52;11.15;;;10.05;;
9749;SDS011;4914;43.218;27.908;2022-11-13T11:10:22;12.25;;;11.05;;
9749;SDS011;4914;43.218;27.908;2022-11-13T11:12:55;15.52;;;12.10;;
9749;SDS011;4914;43.218;27.908;2022-11-13T11:15:25;12.30;;;11.02;;
9749;SDS011;4914;43.218;27.908;2022-11-13T11:17:56;13.05;;;11.77;;
9749;SDS011;4914;43.218;27.908;2022-11-13T11:20:31;16.70;;;13.23;;
9749;SDS011;4914;43.218;27.908;2022-11-13T11:26:01;18.90;;;16.95;;
9749;SDS011;4914;43.218;27.908;2022-11-13T11:28:32;17.58;;;15.95;;
9749;SDS011;4914;43.218;27.908;2022-11-13T11:31:04;17.52;;;15.68;;
9749;SDS011;4914;43.218;27.908;2022-11-13T11:33:41;15.13;;;13.60;;
9749;SDS011;4914;43.218;27.908;2022-11-13T11:36:19;16.58;;;14.57;;
9749;SDS011;4914;43.218;27.908;2022-11-13T11:38:55;17.02;;;15.30;;
9749;SDS011;4914;43.218;27.908;2022-11-13T11:41:33;17.23;;;14.55;;
9749;SDS011;4914;43.218;27.908;2022-11-13T11:44:07;19.50;;;15.48;;
9749;SDS011;4914;43.218;27.908;2022-11-13T11:46:40;19.85;;;16.40;;
9749;SDS011;4914;43.218;27.908;2022-11-13T11:49:07;14.55;;;13.05;;
9749;SDS011;4914;43.218;27.908;2022-11-13T11:51:37;15.00;;;12.48;;
9749;SDS011;4914;43.218;27.908;2022-11-13T11:54:13;16.33;;;12.68;;
9749;SDS011;4914;43.218;27.908;2022-11-13T11:56:50;12.80;;;11.50;;
9749;SDS011;4914;43.218;27.908;2022-11-13T11:59:42;15.43;;;12.10;;
9749;SDS011;4914;43.218;27.908;2022-11-13T12:05:24;29.38;;;25.45;;
9749;SDS011;4914;43.218;27.908;2022-11-13T12:07:58;16.05;;;14.35;;
9749;SDS011;4914;43.218;27.908;2022-11-13T12:10:39;14.15;;;12.73;;
9749;SDS011;4914;43.218;27.908;2022-11-13T12:13:21;11.63;;;10.52;;
9749;SDS011;4914;43.218;27.908;2022-11-13T12:15:55;12.40;;;11.15;;
9749;SDS011;4914;43.218;27.908;2022-11-13T12:18:30;11.68;;;10.55;;
9749;SDS011;4914;43.218;27.908;2022-11-13T12:21:13;12.77;;;11.45;;
9749;SDS011;4914;43.218;27.908;2022-11-13T12:23:51;14.18;;;12.73;;
9749;SDS011;4914;43.218;27.908;2022-11-13T12:26:28;13.48;;;11.15;;
9749;SDS011;4914;43.218;27.908;2022-11-13T12:29:03;12.93;;;10.80;;
9749;SDS011;4914;43.218;27.908;2022-11-13T12:31:45;12.30;;;11.10;;
9749;SDS011;4914;43.218;27.908;2022-11-13T12:34:24;12.73;;;11.32;;
9749;SDS011;4914;43.218;27.908;2022-11-13T12:36:55;12.15;;;10.95;;
9749;SDS011;4914;43.218;27.908;2022-11-13T12:39:29;12.13;;;10.93;;
9749;SDS011;4914;43.218;27.908;2022-11-13T12:42:07;17.38;;;14.80;;
9749;SDS011;4914;43.218;27.908;2022-11-13T12:44:45;19.13;;;12.60;;
9749;SDS011;4914;43.218;27.908;2022-11-13T12:47:17;17.17;;;12.45;;
9749;SDS011;4914;43.218;27.908;2022-11-13T12:49:44;11.80;;;10.52;;
9749;SDS011;4914;43.218;27.908;2022-11-13T12:52:18;13.00;;;10.95;;
9749;SDS011;4914;43.218;27.908;2022-11-13T12:54:47;11.10;;;10.00;;
9749;SDS011;4914;43.218;27.908;2022-11-13T12:57:24;14.07;;;10.48;;
9749;SDS011;4914;43.218;27.908;2022-11-13T12:59:52;11.23;;;9.85;;
9749;SDS011;4914;43.218;27.908;2022-11-13T13:02:31;14.38;;;12.02;;
9749;SDS011;4914;43.218;27.908;2022-11-13T13:05:11;11.95;;;10.70;;
9749;SDS011;4914;43.218;27.908;2022-11-13T13:07:47;20.17;;;16.83;;
9749;SDS011;4914;43.218;27.908;2022-11-13T13:10:29;13.50;;;11.77;;
9749;SDS011;4914;43.218;27.908;2022-11-13T13:13:06;21.48;;;18.55;;
9749;SDS011;4914;43.218;27.908;2022-11-13T13:15:41;14.88;;;13.38;;
9749;SDS011;4914;43.218;27.908;2022-11-13T13:18:23;15.18;;;12.20;;
9749;SDS011;4914;43.218;27.908;2022-11-13T13:20:58;17.77;;;13.55;;
9749;SDS011;4914;43.218;27.908;2022-11-13T13:23:27;11.15;;;10.15;;
9749;SDS011;4914;43.218;27.908;2022-11-13T13:26:00;12.15;;;10.40;;
9749;SDS011;4914;43.218;27.908;2022-11-13T13:28:31;11.18;;;9.77;;
9749;SDS011;4914;43.218;27.908;2022-11-13T13:31:00;11.73;;;10.50;;
9749;SDS011;4914;43.218;27.908;2022-11-13T13:33:36;39.58;;;25.73;;
9749;SDS011;4914;43.218;27.908;2022-11-13T13:36:14;18.55;;;16.33;;
9749;SDS011;4914;43.218;27.908;2022-11-13T13:38:49;14.23;;;12.77;;
9749;SDS011;4914;43.218;27.908;2022-11-13T13:41:24;12.55;;;10.55;;
9749;SDS011;4914;43.218;27.908;2022-11-13T13:44:09;12.40;;;11.10;;
9749;SDS011;4914;43.218;27.908;2022-11-13T13:46:59;11.55;;;10.35;;
9749;SDS011;4914;43.218;27.908;2022-11-13T13:49:31;11.38;;;10.25;;
9749;SDS011;4914;43.218;27.908;2022-11-13T13:51:59;12.32;;;11.13;;
9749;SDS011;4914;43.218;27.908;2022-11-13T13:54:26;46.50;;;36.20;;
9749;SDS011;4914;43.218;27.908;2022-11-13T13:56:55;28.48;;;23.42;;
9749;SDS011;4914;43.218;27.908;2022-11-13T13:59:28;11.25;;;10.07;;
9749;SDS011;4914;43.218;27.908;2022-11-13T14:02:00;13.85;;;10.23;;
9749;SDS011;4914;43.218;27.908;2022-11-13T14:04:28;10.63;;;9.48;;
9749;SDS011;4914;43.218;27.908;2022-11-13T14:07:01;15.43;;;10.70;;
9749;SDS011;4914;43.218;27.908;2022-11-13T14:09:28;13.55;;;10.32;;
9749;SDS011;4914;43.218;27.908;2022-11-13T14:11:57;11.53;;;10.03;;
9749;SDS011;4914;43.218;27.908;2022-11-13T14:14:26;13.77;;;10.30;;
9749;SDS011;4914;43.218;27.908;2022-11-13T14:16:54;11.70;;;10.13;;
9749;SDS011;4914;43.218;27.908;2022-11-13T14:19:22;16.13;;;10.63;;
9749;SDS011;4914;43.218;27.908;2022-11-13T14:21:50;10.83;;;9.60;;
9749;SDS011;4914;43.218;27.908;2022-11-13T14:24:20;12.90;;;9.93;;
9749;SDS011;4914;43.218;27.908;2022-11-13T14:26:50;11.85;;;9.85;;
9749;SDS011;4914;43.218;27.908;2022-11-13T14:29:21;13.13;;;11.13;;
9749;SDS011;4914;43.218;27.908;2022-11-13T14:31:53;12.25;;;10.90;;
9749;SDS011;4914;43.218;27.908;2022-11-13T14:34:20;17.70;;;12.98;;
9749;SDS011;4914;43.218;27.908;2022-11-13T14:36:49;16.97;;;11.73;;
9749;SDS011;4914;43.218;27.908;2022-11-13T14:39:19;12.00;;;10.63;;
9749;SDS011;4914;43.218;27.908;2022-11-13T14:41:49;11.47;;;9.90;;
9749;SDS011;4914;43.218;27.908;2022-11-13T14:44:25;12.33;;;10.30;;
9749;SDS011;4914;43.218;27.908;2022-11-13T14:46:59;16.30;;;11.95;;
9749;SDS011;4914;43.218;27.908;2022-11-13T14:49:28;11.23;;;9.93;;
9749;SDS011;4914;43.218;27.908;2022-11-13T14:51:56;24.17;;;16.47;;